Terminal Aerodrome Forecast
Issued by NWS

Home | Current Version | Previous Version | Graphics & Text | Print | Product List | Glossary On
Versions: 1 2 3 4 5 6 7 8 9 10 11 12 13 14 15 16 17 18 19 20
000
FTUS43 KGRB 141500 AAA
TAFATW
TAF AMD
KATW 141545Z 1416/1512 35015G25KT P6SM -SN BKN015 OVC035
     FM141800 34014G24KT P6SM BKN035
     FM150000 35012KT P6SM BKN050
     FM150300 34008KT P6SM SCT050 BKN120=

USA.gov is the U.S. government's official web portal to all federal, state and local government web resources and services.